Buoy 41613

sailwx.info

Track history (hours):
 
Tides and Currents Weather Stations Pressure Air Temp Water Temp Dewpoint Dewpoint Depression Visibility Wind Speed Wind Dir Waves Ship Positions

Drifting buoy 41613

Last reported at 2015-Jan-27 11:00 UTC. Time now 2015-Jan-27 16:56 UTC.
Position N 28°06' W 076°03'.

Water temperature 22.1 ° C

Date/timePositionNaut miles runAvg speedWind from/ knotsBaromVisibWave heightAir tempDewpointWater temp
2015-Jan-27 11:00N 28°06' W 076°03'0 0.0 22.1
2015-Jan-27 10:00N 28°06' W 076°03'0 0.0 22.1
2015-Jan-27 02:00N 28°06' W 076°03'0 0.0 22.2
2015-Jan-26 23:00N 28°06' W 076°03'0 0.0 22.3
2015-Jan-26 22:00N 28°06' W 076°03'0 0.0 22.3
2015-Jan-26 20:00N 28°06' W 076°03'0 0.0 22.4
2015-Jan-26 17:00N 28°06' W 076°03'0 0.0 22.4
2015-Jan-26 07:00N 28°06' W 076°03'9 9.0 22.5
2015-Jan-26 06:00N 28°15' W 076°06'0 0.0 22.5
2015-Jan-26 01:00N 28°15' W 076°06'0 0.0 22.6
2015-Jan-25 21:00N 28°15' W 076°06'6 3.0 22.7
2015-Jan-25 19:00N 28°21' W 076°08'0 0.0 22.6
2015-Jan-25 17:00N 28°21' W 076°08'7 0.6 22.5
2015-Jan-25 05:00N 28°27' W 076°05'20 5.1 22.4
2015-Jan-25 01:00N 28°47' W 076°08'0 0.0 22.4
2015-Jan-24 23:00N 28°47' W 076°08'0 0.0 22.5
2015-Jan-24 19:00N 28°47' W 076°08'0 0.0 22.7
2015-Jan-24 17:00N 28°47' W 076°08'0 0.0 22.8
2015-Jan-24 14:00N 28°47' W 076°08'0 0.0 22.5
2015-Jan-24 11:00N 28°47' W 076°08'0 0.0 22.4
2015-Jan-24 09:00N 28°47' W 076°08'0 0.0 22.4
2015-Jan-24 03:00N 28°47' W 076°08'0 0.0 22.5
2015-Jan-23 22:00N 28°47' W 076°08'0 0.0 22.6
2015-Jan-23 21:00N 28°47' W 076°08'0 0.0 22.6
2015-Jan-23 17:00N 28°47' W 076°08'1 0.1 22.6
2015-Jan-23 05:00N 28°47' W 076°07'14 4.8 22.7
2015-Jan-23 02:00N 28°59' W 076°15'0 0.0 23.1
2015-Jan-22 22:00N 28°59' W 076°15'0 0.0 22.9
2015-Jan-22 11:00N 28°59' W 076°15'0 0.0 22.5
2015-Jan-22 10:00N 28°59' W 076°15'0 0.0 22.5
2015-Jan-22 08:00N 28°59' W 076°15'0 0.0 22.5
2015-Jan-22 06:00N 28°59' W 076°15'0 0.0 22.5
2015-Jan-22 02:00N 28°59' W 076°15'0 0.0 22.7
2015-Jan-21 23:00N 28°59' W 076°15'0 0.0 22.7
2015-Jan-21 21:00N 28°59' W 076°15'0 0.0 23.0
2015-Jan-21 18:00N 28°59' W 076°15'12 0.5 23.5
2015-Jan-20 18:00N 29°11' W 076°16'14 1.7 22.8
2015-Jan-20 10:00N 29°22' W 076°07'25 6.3 23.2
2015-Jan-20 06:00N 29°42' W 075°49'0 0.0 23.0
2015-Jan-20 03:00N 29°42' W 075°49'0 0.0 22.1
2015-Jan-20 01:00N 29°42' W 075°49'0 0.0 22.2
2015-Jan-19 19:00N 29°42' W 075°49'0 0.0 22.2
2015-Jan-19 18:00N 29°42' W 075°49'0 0.0 22.2
2015-Jan-19 14:00N 29°42' W 075°49'0 0.0 22.2
2015-Jan-19 07:00N 29°42' W 075°49'0 0.0 22.2
2015-Jan-18 23:00N 29°42' W 075°49'0 0.0 22.2
2015-Jan-18 22:00N 29°42' W 075°49'0 0.0 22.2
2015-Jan-18 20:00N 29°42' W 075°49'1 0.1 22.2
2015-Jan-18 11:00N 29°43' W 075°49'16 1.8 22.2
2015-Jan-18 02:00N 29°53' W 075°34'0 0.0 22.3
2015-Jan-17 19:00N 29°53' W 075°34'0 0.1 22.4
2015-Jan-17 18:00N 29°53' W 075°34'   22.4
Track history (hours):
 
Tides and Currents Weather Stations Pressure Air Temp Water Temp Dewpoint Dewpoint Depression Visibility Wind Speed Wind Dir Waves Ship Positions

Drifting buoy 41613

Last reported at 2015-Jan-27 11:00 UTC. Time now 2015-Jan-27 16:56 UTC.
Position N 28°06' W 076°03'.

Water temperature 22.1 ° C

Date/timePositionNaut miles runAvg speedWind from/ knotsBaromVisibWave heightAir tempDewpointWater temp
2015-Jan-27 11:00N 28°06' W 076°03'0 0.0 22.1
2015-Jan-27 10:00N 28°06' W 076°03'0 0.0 22.1
2015-Jan-27 02:00N 28°06' W 076°03'0 0.0 22.2
2015-Jan-26 23:00N 28°06' W 076°03'0 0.0 22.3
2015-Jan-26 22:00N 28°06' W 076°03'0 0.0 22.3
2015-Jan-26 20:00N 28°06' W 076°03'0 0.0 22.4
2015-Jan-26 17:00N 28°06' W 076°03'0 0.0 22.4
2015-Jan-26 07:00N 28°06' W 076°03'9 9.0 22.5
2015-Jan-26 06:00N 28°15' W 076°06'0 0.0 22.5
2015-Jan-26 01:00N 28°15' W 076°06'0 0.0 22.6
2015-Jan-25 21:00N 28°15' W 076°06'6 3.0 22.7
2015-Jan-25 19:00N 28°21' W 076°08'0 0.0 22.6
2015-Jan-25 17:00N 28°21' W 076°08'7 0.6 22.5
2015-Jan-25 05:00N 28°27' W 076°05'20 5.1 22.4
2015-Jan-25 01:00N 28°47' W 076°08'0 0.0 22.4
2015-Jan-24 23:00N 28°47' W 076°08'0 0.0 22.5
2015-Jan-24 19:00N 28°47' W 076°08'0 0.0 22.7
2015-Jan-24 17:00N 28°47' W 076°08'0 0.0 22.8
2015-Jan-24 14:00N 28°47' W 076°08'0 0.0 22.5
2015-Jan-24 11:00N 28°47' W 076°08'0 0.0 22.4
2015-Jan-24 09:00N 28°47' W 076°08'0 0.0 22.4
2015-Jan-24 03:00N 28°47' W 076°08'0 0.0 22.5
2015-Jan-23 22:00N 28°47' W 076°08'0 0.0 22.6
2015-Jan-23 21:00N 28°47' W 076°08'0 0.0 22.6
2015-Jan-23 17:00N 28°47' W 076°08'1 0.1 22.6
2015-Jan-23 05:00N 28°47' W 076°07'14 4.8 22.7
2015-Jan-23 02:00N 28°59' W 076°15'0 0.0 23.1
2015-Jan-22 22:00N 28°59' W 076°15'0 0.0 22.9
2015-Jan-22 11:00N 28°59' W 076°15'0 0.0 22.5
2015-Jan-22 10:00N 28°59' W 076°15'0 0.0 22.5
2015-Jan-22 08:00N 28°59' W 076°15'0 0.0 22.5
2015-Jan-22 06:00N 28°59' W 076°15'0 0.0 22.5
2015-Jan-22 02:00N 28°59' W 076°15'0 0.0 22.7
2015-Jan-21 23:00N 28°59' W 076°15'0 0.0 22.7
2015-Jan-21 21:00N 28°59' W 076°15'0 0.0 23.0
2015-Jan-21 18:00N 28°59' W 076°15'12 0.5 23.5
2015-Jan-20 18:00N 29°11' W 076°16'14 1.7 22.8
2015-Jan-20 10:00N 29°22' W 076°07'25 6.3 23.2
2015-Jan-20 06:00N 29°42' W 075°49'0 0.0 23.0
2015-Jan-20 03:00N 29°42' W 075°49'0 0.0 22.1
2015-Jan-20 01:00N 29°42' W 075°49'0 0.0 22.2
2015-Jan-19 19:00N 29°42' W 075°49'0 0.0 22.2
2015-Jan-19 18:00N 29°42' W 075°49'0 0.0 22.2
2015-Jan-19 14:00N 29°42' W 075°49'0 0.0 22.2
2015-Jan-19 07:00N 29°42' W 075°49'0 0.0 22.2
2015-Jan-18 23:00N 29°42' W 075°49'0 0.0 22.2
2015-Jan-18 22:00N 29°42' W 075°49'0 0.0 22.2
2015-Jan-18 20:00N 29°42' W 075°49'1 0.1 22.2
2015-Jan-18 11:00N 29°43' W 075°49'16 1.8 22.2
2015-Jan-18 02:00N 29°53' W 075°34'0 0.0 22.3
2015-Jan-17 19:00N 29°53' W 075°34'0 0.1 22.4
2015-Jan-17 18:00N 29°53' W 075°34'   22.4

Dump ship's entire track history